Terminal Aerodrome Forecast
Issued by NWS

Home | Current Version | Previous Version | Text Only | Print | Product List | Glossary On
Versions: 1 2 3 4 5 6 7 8 9 10 11 12 13 14 15 16 17 18 19 20 21 22 23 24 25 26 27
000
FTUS46 KSGX 251100
TAFSAN
TAF
KSAN 251124Z 2512/2618 17009KT P6SM SCT007 OVC013
     FM251530 17009KT P6SM SCT015
     FM251900 23010KT P6SM SCT200
     FM260300 VRB05KT P6SM FEW007 SCT200
     FM260500 VRB05KT P6SM BKN009 OVC200
     FM261000 VRB05KT P6SM OVC012
     FM261530 VRB05KT P6SM SCT015 SCT200=

USA.gov is the U.S. government's official web portal to all federal, state and local government web resources and services.